Latest Weather Observations for Tamworth Airport

IDN60801

Issued at 5:43 pm EDT Monday 25 October 2021 (issued every 10 minutes, with the page automatically refreshed every 10 minutes)

About weather observations | Map of weather stations | Latest weather observations for NSW | Other Formats
Station Details ID: 055325 Name: TAMWORTH AIRPORT AWS Lat: -31.07 Lon: 150.84 Height: 394.9 m
Data from the previous 72 hours. | See also: Recent months at Tamworth Airport
Date/Time
EDT
Temp
°C
App
Temp
°C
Dew
Point
°C
Rel
Hum
%
Delta-T
°C
Wind Press
QNH
hPa
Press
MSL
hPa
Rain since
9am
mm
Dir  Spd
km/h
Gust
km/h
Spd
kts
Gust
kts
25/05:30pm 23.3 17.7 -0.2 21 10.8 WSW 19 32 10 17 1014.5 1013.4 0.0
25/05:00pm 24.1 19.2 1.7 23 10.8 W 17 26 9 14 1014.4 1013.3 0.0
25/04:30pm 24.0 18.9 1.0 22 10.9 W 17 28 9 15 1014.4 1013.3 0.0
25/04:00pm 24.0 18.8 2.2 24 10.6 W 19 30 10 16 1014.6 1013.5 0.0
25/03:30pm 23.7 17.8 1.4 23 10.6 WNW 22 32 12 17 1014.9 1013.8 0.0
25/03:00pm 23.3 18.3 1.6 24 10.4 WNW 17 30 9 16 1015.3 1014.3 0.0
25/02:30pm 23.1 16.7 0.9 23 10.4 W 24 32 13 17 1015.8 1014.7 0.0
25/02:00pm 23.1 17.6 2.0 25 10.1 W 20 32 11 17 1016.2 1015.1 0.0
25/01:30pm 22.5 17.5 1.5 25 10.0 WNW 17 32 9 17 1016.4 1015.3 0.0
25/01:00pm 21.8 17.8 3.0 29 9.1 W 13 24 7 13 1016.5 1015.4 0.0
25/12:30pm 21.3 17.1 1.6 27 9.3 W 13 26 7 14 1016.8 1015.7 0.0
25/12:00pm 21.2 16.9 3.4 31 8.7 SW 15 24 8 13 1017.1 1016.0 0.0
25/11:30am 20.8 16.8 3.1 31 8.5 WSW 13 22 7 12 1017.5 1016.5 0.0
25/11:00am 20.4 17.1 4.8 36 7.7 W 11 19 6 10 1017.7 1016.7 0.0
25/10:30am 19.8 17.6 5.5 39 7.2 NNW 6 15 3 8 1018.0 1017.0 0.0
25/10:00am 18.1 15.9 6.0 45 6.1 NW 7 13 4 7 1018.2 1017.1 0.0
25/09:30am 17.0 15.0 6.2 49 5.4 N 6 9 3 5 1018.2 1017.1 0.0
25/09:00am 15.3 13.7 7.8 61 3.8 NNW 6 9 3 5 1018.3 1017.2 0.0
25/08:30am 13.3 12.6 7.1 66 3.1 CALM 0 6 0 3 1018.0 1017.0 0.0
25/08:00am 12.1 10.4 7.4 73 2.3 ESE 6 9 3 5 1017.9 1016.9 0.0
25/07:30am 10.0 8.0 6.9 81 1.5 SE 7 11 4 6 1017.6 1016.6 0.0
25/07:00am 7.5 5.6 7.4 99 0.0 SE 7 9 4 5 1017.3 1016.2 0.0
25/06:30am 4.5 2.1 4.1 97 0.2 SSW 6 7 3 4 1017.1 1016.0 0.0
25/06:00am 5.6 3.6 4.6 93 0.4 SE 4 9 2 5 1016.8 1015.7 0.0
25/05:30am 6.4 2.5 5.5 94 0.4 SE 15 17 8 9 1016.3 1015.2 0.0
25/05:00am 6.0 3.7 5.0 93 0.4 ESE 6 7 3 4 1016.3 1015.2 0.0
25/04:30am 6.0 3.7 5.0 93 0.4 S 6 9 3 5 1016.1 1015.0 0.0
25/04:00am 5.2 2.5 3.9 91 0.6 SW 7 7 4 4 1016.3 1015.2 0.0
25/03:30am 6.6 3.6 4.3 85 1.0 S 9 11 5 6 1016.2 1015.1 0.0
25/03:00am 8.5 6.3 5.3 80 1.5 E 6 6 3 3 1016.3 1015.2 0.0
25/02:30am 8.8 7.8 5.4 79 1.6 CALM 0 0 0 0 1016.7 1015.6 0.0
25/02:00am 8.2 5.9 4.8 79 1.5 E 6 7 3 4 1017.0 1015.9 0.0
25/01:30am 9.6 7.5 5.6 76 1.9 N 6 7 3 4 1017.5 1016.5 0.0
25/01:00am 10.2 7.5 5.8 74 2.1 NNE 9 11 5 6 1017.8 1016.8 0.0
25/12:30am 9.1 6.9 5.3 77 1.8 ENE 6 9 3 5 1017.9 1016.9 0.0
25/12:00am 11.5 10.0 5.2 65 3.0 NNW 2 7 1 4 1017.9 1016.9 0.0
 
Date/Time
EDT
Temp
°C
App
Temp
°C
Dew
Point
°C
Rel
Hum
%
Delta-T
°C
Wind Press
QNH
hPa
Press
MSL
hPa
Rain since
9am
mm
Dir  Spd
km/h
Gust
km/h
Spd
kts
Gust
kts
24/11:30pm 12.2 10.1 5.6 64 3.1 NNE 6 7 3 4 1017.8 1016.8 0.0
24/11:00pm 12.5 9.9 6.3 66 3.0 N 9 13 5 7 1017.9 1016.9 0.0
24/10:30pm 12.1 10.9 6.6 69 2.7 W 2 9 1 5 1017.7 1016.7 0.0
24/10:00pm 12.0 9.0 5.9 66 2.9 WSW 11 13 6 7 1017.4 1016.4 0.0
24/09:30pm 12.6 9.1 5.3 61 3.5 WSW 13 15 7 8 1017.1 1016.0 0.0
24/09:00pm 14.1 10.9 5.2 55 4.3 WSW 11 13 6 7 1016.8 1015.7 0.0
24/08:30pm 14.7 10.8 5.2 53 4.6 SW 15 19 8 10 1016.4 1015.3 0.0
24/08:00pm 15.2 10.9 5.1 51 4.9 WSW 17 17 9 9 1015.9 1014.8 0.0
24/07:30pm 16.6 13.3 4.3 44 5.9 SW 11 13 6 7 1015.5 1014.4 0.0
24/07:00pm 19.8 16.1 4.3 36 7.6 SW 13 17 7 9 1015.0 1013.9 0.0
24/06:30pm 22.1 17.2 4.2 31 8.9 WSW 19 26 10 14 1014.8 1013.7 0.0
24/06:00pm 23.5 19.1 4.5 29 9.6 WSW 17 24 9 13 1014.6 1013.5 0.0
24/05:30pm 24.2 20.0 5.5 30 9.7 WSW 17 22 9 12 1014.4 1013.3 0.0
24/05:00pm 24.6 20.0 5.4 29 9.9 W 19 26 10 14 1014.2 1013.1 0.0
24/04:30pm 24.8 19.2 5.6 29 10.0 W 24 35 13 19 1014.1 1013.0 0.0
24/04:00pm 24.7 19.9 5.5 29 9.9 W 20 28 11 15 1014.3 1013.2 0.0
24/03:30pm 24.6 20.0 6.4 31 9.6 W 20 32 11 17 1014.5 1013.4 0.0
24/03:00pm 24.7 19.7 6.4 31 9.6 WNW 22 32 12 17 1014.7 1013.6 0.0
24/02:30pm 24.9 21.0 8.8 36 8.9 W 19 30 10 16 1014.9 1013.8 0.0
24/02:00pm 24.7 21.4 9.4 38 8.5 W 17 33 9 18 1015.2 1014.2 0.0
24/01:30pm 24.4 20.5 9.6 39 8.2 W 20 28 11 15 1015.6 1014.5 0.0
24/01:00pm 24.0 19.0 8.0 36 8.6 W 24 39 13 21 1016.0 1014.9 0.0
24/12:30pm 24.0 20.0 9.2 39 8.2 W 20 32 11 17 1016.3 1015.2 0.0
24/12:00pm 23.6 19.4 8.1 37 8.3 W 20 32 11 17 1016.4 1015.3 0.0
24/11:30am 23.5 19.6 8.8 39 8.0 WSW 19 32 10 17 1016.6 1015.5 0.0
24/11:00am 22.8 17.0 8.1 39 7.9 WSW 28 41 15 22 1016.8 1015.7 0.0
24/10:30am 22.5 17.4 7.5 38 8.0 WSW 24 41 13 22 1016.9 1015.8 0.0
24/10:00am 22.3 17.8 8.4 41 7.5 W 22 32 12 17 1017.1 1016.0 0.0
24/09:30am 21.7 16.8 8.6 43 7.1 WSW 24 35 13 19 1016.9 1015.8 0.0
24/09:00am 20.9 15.7 8.9 46 6.5 W 26 33 14 18 1017.0 1015.9 0.0
24/08:30am 20.3 18.5 13.3 64 4.1 WNW 15 20 8 11 1016.8 1015.7 0.0
24/08:00am 18.1 18.0 15.9 87 1.3 NNW 11 15 6 8 1016.6 1015.5 0.0
24/07:30am 16.5 17.1 15.2 92 0.8 WNW 6 11 3 6 1016.3 1015.2 0.0
24/07:00am 14.8 14.7 14.0 95 0.5 NNW 7 9 4 5 1015.8 1014.7 0.0
24/06:30am 14.1 13.5 13.6 97 0.3 N 9 11 5 6 1015.2 1014.2 0.0
24/06:00am 14.1 14.0 13.8 98 0.2 N 7 9 4 5 1014.7 1013.6 0.0
24/05:30am 14.7 14.8 14.5 99 0.1 N 7 9 4 5 1014.4 1013.3 0.0
24/05:00am 14.9 14.8 14.9 100 0.0 NNE 9 11 5 6 1014.0 1012.9 0.0
24/04:30am 14.5 15.2 14.5 100 0.0 N 4 7 2 4 1013.8 1012.7 0.0
24/04:00am 14.8 16.4 14.8 100 0.0 CALM 0 0 0 0 1013.5 1012.4 0.0
24/03:30am 14.7 16.2 14.7 100 0.0 CALM 0 0 0 0 1013.2 1012.1 0.0
24/03:00am 13.8 13.1 13.2 96 0.3 WNW 9 11 5 6 1013.3 1012.2 0.0
24/02:30am 15.7 15.7 15.1 96 0.4 NNE 9 11 5 6 1013.5 1012.4 0.0
24/02:00am 15.9 16.4 15.1 95 0.5 ENE 6 11 3 6 1013.5 1012.4 0.0
24/01:30am 16.3 18.1 15.5 95 0.5 CALM 0 0 0 0 1013.6 1012.5 0.0
24/01:00am 15.9 17.5 14.8 93 0.6 CALM 0 0 0 0 1013.5 1012.4 0.0
24/12:30am 16.3 16.9 15.2 93 0.6 N 6 11 3 6 1013.5 1012.4 0.0
24/12:00am 17.0 18.9 15.7 92 0.8 CALM 0 6 0 3 1012.9 1011.7 0.0
 
Date/Time
EDT
Temp
°C
App
Temp
°C
Dew
Point
°C
Rel
Hum
%
Delta-T
°C
Wind Press
QNH
hPa
Press
MSL
hPa
Rain since
9am
mm
Dir  Spd
km/h
Gust
km/h
Spd
kts
Gust
kts
23/11:30pm 16.9 16.4 14.9 88 1.2 WSW 11 13 6 7 1012.3 1011.2 0.0
23/11:00pm 18.2 18.1 14.9 81 2.0 SSW 9 11 5 6 1012.3 1011.2 0.0
23/10:30pm 20.0 18.0 15.4 75 2.8 SE 20 24 11 13 1011.5 1010.4 0.0
23/10:00pm 21.0 18.6 16.4 75 2.8 S 24 30 13 16 1011.6 1010.5 0.0
23/09:30pm 22.7 23.2 17.4 72 3.3 NW 11 13 6 7 1010.9 1009.8 0.0
23/09:00pm 22.8 22.1 17.3 71 3.5 NW 17 26 9 14 1010.2 1009.0 0.0
23/08:30pm 24.8 25.1 18.0 66 4.3 N 13 17 7 9 1009.3 1008.2 0.0
23/08:00pm 24.9 25.4 18.4 67 4.2 NE 13 13 7 7 1008.7 1007.6 0.0
23/07:30pm 26.1 27.2 18.0 61 5.2 NNE 9 13 5 7 1008.7 1007.6 0.0
23/07:00pm 27.5 27.5 18.2 57 6.0 N 15 17 8 9 1009.2 1008.1 0.0
23/06:30pm 29.2 28.9 18.3 51 7.1 N 17 20 9 11 1009.1 1008.0 0.0
23/06:00pm 30.2 28.8 18.0 48 7.9 N 22 32 12 17 1009.0 1007.9 0.0
23/05:30pm 30.3 28.7 18.4 49 7.8 NNW 24 33 13 18 1009.0 1007.9 0.0
23/05:00pm 31.3 29.7 19.3 49 8.0 NNW 26 35 14 19 1008.9 1007.8 0.0
23/04:30pm 31.7 29.1 18.7 46 8.6 NNW 30 44 16 24 1009.2 1008.1 0.0
23/04:00pm 32.3 30.1 18.8 44 8.9 N 28 39 15 21 1009.9 1008.8 0.0
23/03:30pm 33.0 30.2 16.4 37 10.6 N 26 37 14 20 1009.9 1008.8 0.0
23/03:00pm 32.2 32.1 16.1 38 10.3 N 11 22 6 12 1010.4 1009.2 0.0
23/02:30pm 32.0 31.6 16.3 39 10.0 ENE 13 19 7 10 1010.8 1009.7 0.0
23/02:00pm 31.1 31.4 15.9 40 9.6 N 9 19 5 10 1011.5 1010.4 0.0
23/01:30pm 30.9 31.4 16.5 42 9.2 W 9 15 5 8 1012.1 1011.0 0.0
23/01:00pm 29.9 30.6 17.0 45 8.3 WNW 9 17 5 9 1013.0 1011.9 0.0
23/12:30pm 29.1 30.2 18.8 53 6.7 NNW 11 19 6 10 1013.6 1012.5 0.0
23/12:00pm 28.5 29.5 18.6 55 6.5 NNW 11 17 6 9 1014.2 1013.1 0.0
23/11:30am 27.6 28.9 19.4 61 5.4 NNW 11 19 6 10 1014.6 1013.5 0.0
23/11:00am 27.0 26.8 19.4 63 5.0 N 19 24 10 13 1015.1 1014.1 0.0
23/10:30am 25.6 25.0 18.8 66 4.4 N 20 28 11 15 1015.7 1014.6 0.0
23/10:00am 24.5 25.4 18.4 69 3.9 N 11 20 6 11 1016.0 1014.9 0.0
23/09:30am 22.8 23.8 16.8 69 3.7 N 7 17 4 9 1016.4 1015.3 0.0
23/09:00am 22.2 23.1 16.2 69 3.7 ESE 6 9 3 5 1016.5 1015.4 0.0
23/08:30am 20.0 20.0 16.2 79 2.3 SE 11 15 6 8 1016.6 1015.5 0.0
23/08:00am 18.5 18.0 15.9 85 1.6 SE 13 15 7 8 1016.6 1015.5 0.0
23/07:30am 15.8 16.4 15.8 100 0.0 SSW 7 9 4 5 1016.5 1015.4 0.0
23/07:00am 13.0 12.8 13.0 100 0.0 S 6 9 3 5 1016.1 1015.0 0.0
23/06:30am 11.9 10.8 11.9 100 0.0 SE 9 11 5 6 1015.8 1014.7 0.0
23/06:00am 11.5 10.3 11.5 100 0.0 SE 9 11 5 6 1015.9 1014.8 0.0
23/05:30am 11.0 11.3 11.0 100 0.0 CALM 0 0 0 0 1015.7 1014.6 0.0
23/05:00am 10.7 10.8 10.2 97 0.3 CALM 0 6 0 3 1015.5 1014.4 0.0
23/04:30am 11.3 9.5 10.7 96 0.3 NNE 11 13 6 7 1015.1 1014.1 0.0
23/04:00am 13.8 11.7 13.5 98 0.2 SSE 17 19 9 10 1014.5 1013.4 0.0
23/03:30am 13.9 12.1 13.3 96 0.3 SSE 15 17 8 9 1014.5 1013.4 0.0
23/03:00am 14.5 12.5 13.9 96 0.3 S 17 19 9 10 1014.5 1013.4 0.0
23/02:30am 14.3 12.2 13.7 96 0.3 S 17 19 9 10 1014.6 1013.5 0.0
23/02:00am 14.5 12.8 13.5 94 0.6 S 15 17 8 9 1015.0 1013.9 0.0
23/01:30am 14.6 12.9 13.5 93 0.6 SSE 15 17 8 9 1015.2 1014.2 0.0
23/01:00am 14.8 13.1 13.5 92 0.7 S 15 17 8 9 1015.3 1014.3 0.0
23/12:30am 14.9 12.7 13.3 90 0.9 SSE 17 20 9 11 1015.5 1014.4 0.0
23/12:00am 15.8 13.8 13.8 88 1.1 SSE 17 20 9 11 1015.5 1014.4 0.0
 
Date/Time
EDT
Temp
°C
App
Temp
°C
Dew
Point
°C
Rel
Hum
%
Delta-T
°C
Wind Press
QNH
hPa
Press
MSL
hPa
Rain since
9am
mm
Dir  Spd
km/h
Gust
km/h
Spd
kts
Gust
kts
22/11:30pm 15.4 13.1 13.1 86 1.3 SSE 17 20 9 11 1015.6 1014.5 0.0
22/11:00pm 15.7 14.1 12.8 83 1.6 SSE 13 17 7 9 1015.7 1014.6 0.0
22/10:30pm 15.6 14.8 12.9 84 1.5 SE 9 13 5 7 1015.7 1014.6 0.0
22/10:00pm 16.0 14.5 12.0 77 2.2 S 11 17 6 9 1015.6 1014.5 0.0
22/09:30pm 16.3 14.0 11.7 74 2.5 SSE 15 17 8 9 1015.2 1014.2 0.0
22/09:00pm 16.9 17.4 11.6 71 2.9 CALM 0 6 0 3 1015.1 1014.1 0.0
22/08:30pm 19.6 18.1 11.9 61 4.4 S 11 11 6 6 1014.8 1013.7 0.0
22/08:00pm 19.7 19.6 12.0 61 4.4 SSE 4 9 2 5 1014.5 1013.4 0.0
22/07:30pm 21.7 22.1 11.4 52 5.8 CALM 0 0 0 0 1014.2 1013.1 0.0
22/07:00pm 24.0 24.4 11.3 45 7.3 CALM 0 0 0 0 1013.9 1012.8 0.0
22/06:30pm 26.2 26.9 12.3 42 8.2 CALM 0 0 0 0 1013.6 1012.5 0.0
22/06:00pm 27.3 27.7 11.3 37 9.3 CALM 0 0 0 0 1013.3 1012.2 0.0

Other formats

Comma delimited format used in spreadsheet applications
http://www.bom.gov.au/fwo/IDN60801/IDN60801.95762.axf

JavaScript Object Notation format (JSON) in row-major order
http://www.bom.gov.au/fwo/IDN60801/IDN60801.95762.json

Data quality

Most of these data are generated automatically and are frequently updated. Quality checks on data are not normally performed. It is possible for incorrect values to appear. Refer to information at About Latest Weather Observations and please check the disclaimer before using these data.